Terminal Aerodrome Forecast
Issued by NWS

Home | Current Version | Previous Version | Text Only | Print | Product List | Glossary On
Versions: 1 2 3 4 5 6 7 8 9 10 11 12 13 14 15 16 17 18 19 20 21 22 23 24 25 26 27 28
000
FTUS43 KGRB 241130
TAFATW
TAF
KATW 241130Z 2412/2512 35006KT P6SM SCT250
     FM242100 02008KT P6SM SCT080
     FM242300 03010G15KT P6SM VCSH BKN070
     FM250300 01009KT P6SM SCT070
     FM250500 36009KT P6SM SKC=

USA.gov is the U.S. government's official web portal to all federal, state and local government web resources and services.